GB-0156 weather

CLOSED Cricklewood Aerodrome
London, England, United Kingdom

Public forecast

Using degrees Celsius for public forecast. Weather courtesy of forecast.io.

METAR (pilot weather report)

Closest report is RAF Northolt, 7.7 nm (14.2 km) W. Retrieved 2018/09/24 09:50 UTC (18 minutes ago):

EGWU 240950Z 33009KT 9999 FEW032 12/04 Q1038 BLU NOSIG

TAF (pilot weather forecast)

Closest forecast is RAF Northolt, 7.7 nm (14.2 km) W. Retrieved 2018/09/24 09:19 UTC (49 minutes ago):

TAF EGWU 240726Z 2409/2503 31006KT 9999 FEW030